Ayrshire, Iowa
Current Conditions -  °F | °C
As of 3:53 PM on Tuesday 21 Oct 2014 (Local Time) from KSPW Reporting Station
Clear Clear  
Wind Chill: 70°   Ceiling: Unl
Heat Index: 70°   Visibility: 10mi
Dew Point: 42°   Wind: 12mph
Humidity: 36%   Direction: 150°SSE
Pressure: 30.06"   Gusts: NA
Location:  43.04°N, 94.83°W
Report Text: KSPW 212053Z AUTO 15010KT 10SM CLR 21/06 A3006 RMK AO2 SLP183 T02110056 56014 TSNO
Loading
Personal Weather Stations






























Interactive Weather Map
Tropical Storm Tracking
New forecast layout! Learn more

10-Day Weather Forecast

Advertisements
Track Severe Weather on mobile